Time;durP1;ratioP1;P1;durP2;ratioP2;P2;SDS_P1;SDS_P2;PMS_P1;PMS_P2;Temp;Humidity;BMP_temperature;BMP_pressure;BME280_temperature;BME280_humidity;BME280_pressure;Samples;Min_cycle;Max_cycle;Signal;HPM_P1;HPM_P2
2021/05/03 08:20:23;;;;;;;2.40;1.30;;;;;;;;;;4874021;29;20046;-80
2021/05/03 08:22:49;;;;;;;2.08;1.63;;;;;;;;;;4852668;29;20056;-81
2021/05/03 08:25:15;;;;;;;4.93;1.40;;;;;;;;;;4871351;29;20459;-78
2021/05/03 08:27:41;;;;;;;5.85;1.20;;;;;;;;;;4885648;29;20029;-81
2021/05/03 08:30:09;;;;;;;2.95;1.75;;;;;;;;;;4877196;29;20116;-78
2021/05/03 08:32:35;;;;;;;5.68;2.10;;;;;;;;;;4874543;29;20066;-79
2021/05/03 08:35:01;;;;;;;2.47;1.63;;;;;;;;;;4874285;29;20029;-79
2021/05/03 08:37:27;;;;;;;1.40;1.10;;;;;;;;;;4859251;29;20037;-78
2021/05/03 08:39:53;;;;;;;2.22;1.23;;;;;;;;;;4875914;29;20040;-79
2021/05/03 08:42:20;;;;;;;3.05;1.20;;;;;;;;;;4876373;29;20456;-80
2021/05/03 08:44:48;;;;;;;2.75;1.65;;;;;;;;;;4870639;29;20432;-78
2021/05/03 08:47:14;;;;;;;5.07;1.40;;;;;;;;;;4857042;29;20045;-79
2021/05/03 08:52:14;;;;;;;4.45;1.23;;;;;;;;;;4876065;29;20545;-78
2021/05/03 08:54:41;;;;;;;2.45;1.30;;;;;;;;;;4872855;29;20025;-84
2021/05/03 08:57:08;;;;;;;2.83;1.08;;;;;;;;;;4867560;29;20043;-79
2021/05/03 08:59:37;;;;;;;2.72;1.42;;;;;;;;;;4862744;29;20123;-83
2021/05/03 09:02:05;;;;;;;2.10;1.40;;;;;;;;;;4856406;29;20029;-81
2021/05/03 09:04:31;;;;;;;6.63;1.80;;;;;;;;;;4885786;29;20037;-83
2021/05/03 09:06:58;;;;;;;5.38;1.60;;;;;;;;;;4853874;29;20045;-81
2021/05/03 09:09:34;;;;;;;2.40;1.30;;;;;;;;;;4859666;29;20433;-80
2021/05/03 09:12:02;;;;;;;3.20;1.40;;;;;;;;;;4882916;29;20451;-79
2021/05/03 09:14:29;;;;;;;3.63;2.60;;;;;;;;;;4859528;29;20496;-79
2021/05/03 09:16:55;;;;;;;2.20;1.20;;;;;;;;;;4885168;29;20043;-80
2021/05/03 09:19:21;;;;;;;3.78;1.63;;;;;;;;;;4862753;29;20065;-81
2021/05/03 09:21:48;;;;;;;3.00;1.30;;;;;;;;;;4873019;29;20033;-81
2021/05/03 09:24:34;;;;;;;4.03;1.27;;;;;;;;;;4858121;29;20030;-84
2021/05/03 09:27:04;;;;;;;3.00;1.27;;;;;;;;;;4877494;29;20037;-83
2021/05/03 09:29:37;;;;;;;2.00;1.20;;;;;;;;;;4874236;29;20079;-80
2021/05/03 09:32:13;;;;;;;4.38;1.63;;;;;;;;;;4875144;29;20017;-81
2021/05/03 09:34:47;;;;;;;2.40;1.60;;;;;;;;;;4860007;29;20128;-82
2021/05/03 09:37:17;;;;;;;3.78;1.50;;;;;;;;;;4869196;29;20029;-81
2021/05/03 09:39:45;;;;;;;3.38;1.77;;;;;;;;;;4869543;29;20029;-80
2021/05/03 09:42:11;;;;;;;4.18;1.80;;;;;;;;;;4877705;29;20049;-81
2021/05/03 09:44:37;;;;;;;4.07;1.88;;;;;;;;;;4883628;29;20029;-80
2021/05/03 09:47:03;;;;;;;2.50;1.95;;;;;;;;;;4875533;29;20084;-80
2021/05/03 09:49:29;;;;;;;1.90;1.58;;;;;;;;;;4881104;29;20369;-80
2021/05/03 09:51:58;;;;;;;2.85;1.67;;;;;;;;;;4860810;29;20044;-81
2021/05/03 09:54:28;;;;;;;3.38;1.30;;;;;;;;;;4882158;29;20039;-80
2021/05/03 09:57:21;;;;;;;4.47;1.83;;;;;;;;;;4886198;29;20514;-80
2021/05/03 09:59:48;;;;;;;2.88;1.95;;;;;;;;;;4864348;29;20065;-80
2021/05/03 10:02:35;;;;;;;3.10;2.28;;;;;;;;;;4886676;29;20053;-80
2021/05/03 10:05:07;;;;;;;2.08;1.13;;;;;;;;;;4886727;29;20059;-81
2021/05/03 10:07:36;;;;;;;5.18;1.98;;;;;;;;;;4882855;29;20037;-81
2021/05/03 10:10:06;;;;;;;1.85;1.30;;;;;;;;;;4867629;29;20175;-82
2021/05/03 10:12:33;;;;;;;2.28;1.30;;;;;;;;;;4887027;29;20033;-80
2021/05/03 10:15:00;;;;;;;1.55;1.27;;;;;;;;;;4888998;29;20119;-81
2021/05/03 10:17:27;;;;;;;2.15;1.25;;;;;;;;;;4867164;29;20066;-80
2021/05/03 10:19:54;;;;;;;2.75;2.20;;;;;;;;;;4868027;29;20050;-80
2021/05/03 10:22:22;;;;;;;2.40;1.60;;;;;;;;;;4889494;29;20052;-81
2021/05/03 10:24:50;;;;;;;2.08;1.30;;;;;;;;;;4867767;29;20037;-80
2021/05/03 10:27:17;;;;;;;2.58;1.30;;;;;;;;;;4888323;29;20033;-81
2021/05/03 10:29:44;;;;;;;2.58;1.40;;;;;;;;;;4872220;29;20032;-81
2021/05/03 10:32:16;;;;;;;1.65;1.20;;;;;;;;;;4876686;29;20060;-81
2021/05/03 10:34:42;;;;;;;4.25;1.50;;;;;;;;;;4889274;29;20030;-81
2021/05/03 10:37:47;;;;;;;3.40;1.60;;;;;;;;;;4887265;29;20029;-82
2021/05/03 10:40:13;;;;;;;3.03;1.92;;;;;;;;;;4810712;29;20038;-81
2021/05/03 10:42:59;;;;;;;3.10;1.38;;;;;;;;;;4814136;29;20122;-82
2021/05/03 10:45:39;;;;;;;1.40;1.15;;;;;;;;;;4866217;29;20045;-80
2021/05/03 10:48:25;;;;;;;3.65;1.20;;;;;;;;;;4868919;29;20040;-81
2021/05/03 10:50:51;;;;;;;1.88;1.40;;;;;;;;;;4869829;29;20056;-80
2021/05/03 10:53:27;;;;;;;1.80;1.38;;;;;;;;;;4879598;29;20367;-81
2021/05/03 10:55:56;;;;;;;7.07;1.40;;;;;;;;;;4894089;29;20045;-81
2021/05/03 10:58:22;;;;;;;2.28;1.13;;;;;;;;;;4878884;29;20033;-82
2021/05/03 11:00:57;;;;;;;1.13;1.00;;;;;;;;;;4885537;29;20053;-81
2021/05/03 11:04:02;;;;;;;2.33;1.33;;;;;;;;;;4862860;29;20029;-80
2021/05/03 11:06:37;;;;;;;1.40;1.05;;;;;;;;;;4834376;29;20065;-83
2021/05/03 11:09:21;;;;;;;1.58;1.40;;;;;;;;;;4809702;29;20035;-83
2021/05/03 11:11:50;;;;;;;3.15;1.48;;;;;;;;;;4845463;29;20041;-82
2021/05/03 11:14:17;;;;;;;1.70;1.40;;;;;;;;;;4857719;29;20064;-81
2021/05/03 11:16:46;;;;;;;4.80;1.23;;;;;;;;;;4881401;29;20048;-80
2021/05/03 11:19:41;;;;;;;2.33;1.20;;;;;;;;;;4872655;29;20046;-81
2021/05/03 11:22:15;;;;;;;2.75;1.50;;;;;;;;;;4879377;29;20029;-80
2021/05/03 11:27:44;;;;;;;1.90;1.35;;;;;;;;;;4871488;29;20458;-81
2021/05/03 11:32:38;;;;;;;1.33;1.20;;;;;;;;;;4881117;29;20086;-80
2021/05/03 11:35:24;;;;;;;1.38;1.20;;;;;;;;;;4888310;29;20173;-80
2021/05/03 11:38:14;;;;;;;5.75;2.03;;;;;;;;;;4853998;29;20041;-80
2021/05/03 11:41:18;;;;;;;3.35;1.30;;;;;;;;;;4878736;29;20170;-80
2021/05/03 11:44:12;;;;;;;2.47;1.40;;;;;;;;;;4859575;29;20059;-78
2021/05/03 11:46:42;;;;;;;1.58;1.10;;;;;;;;;;4880833;29;20033;-80
2021/05/03 11:49:24;;;;;;;5.55;2.17;;;;;;;;;;4871514;29;20041;-82
2021/05/03 11:51:51;;;;;;;5.22;2.03;;;;;;;;;;4865784;29;20037;-77
2021/05/03 11:54:30;;;;;;;3.60;1.40;;;;;;;;;;4876245;29;20487;-79
2021/05/03 11:56:57;;;;;;;3.00;1.38;;;;;;;;;;4885143;29;20396;-79
2021/05/03 11:59:23;;;;;;;3.08;1.23;;;;;;;;;;4861684;29;20025;-80
2021/05/03 12:02:03;;;;;;;1.77;1.13;;;;;;;;;;4881996;29;20412;-79
2021/05/03 12:04:42;;;;;;;1.45;1.35;;;;;;;;;;4869663;29;20049;-80
2021/05/03 12:07:11;;;;;;;6.10;2.00;;;;;;;;;;4878443;29;20036;-80
2021/05/03 12:09:38;;;;;;;2.90;1.40;;;;;;;;;;4885517;29;20033;-80
2021/05/03 12:12:04;;;;;;;4.68;1.40;;;;;;;;;;4876899;29;20025;-80
2021/05/03 12:14:44;;;;;;;2.35;1.10;;;;;;;;;;4859079;29;20042;-85
2021/05/03 12:17:16;;;;;;;1.38;1.02;;;;;;;;;;4867097;29;20033;-81
2021/05/03 12:19:42;;;;;;;2.27;1.50;;;;;;;;;;4852275;29;20061;-83
2021/05/03 12:22:08;;;;;;;1.20;1.05;;;;;;;;;;4860380;29;20041;-79
2021/05/03 12:24:40;;;;;;;1.77;1.20;;;;;;;;;;4863990;29;20508;-82
2021/05/03 12:27:07;;;;;;;5.47;1.10;;;;;;;;;;4863101;29;20041;-82
2021/05/03 12:29:33;;;;;;;5.97;1.13;;;;;;;;;;4857495;29;20069;-82
2021/05/03 12:31:59;;;;;;;1.95;1.13;;;;;;;;;;4856266;29;20026;-82
2021/05/03 12:34:26;;;;;;;4.22;1.35;;;;;;;;;;4869154;29;20028;-82
2021/05/03 12:37:12;;;;;;;1.98;1.30;;;;;;;;;;4869104;29;20041;-82
2021/05/03 12:39:41;;;;;;;1.67;1.20;;;;;;;;;;4857776;29;20061;-81
2021/05/03 12:42:11;;;;;;;2.22;1.00;;;;;;;;;;4859996;29;20022;-81
2021/05/03 12:44:53;;;;;;;3.70;1.30;;;;;;;;;;4861617;29;20049;-79
2021/05/03 12:47:50;;;;;;;3.55;1.10;;;;;;;;;;4851760;29;20029;-79
2021/05/03 12:52:58;;;;;;;1.10;1.00;;;;;;;;;;4858065;29;20041;-79
2021/05/03 12:56:00;;;;;;;5.53;1.50;;;;;;;;;;4855892;29;20030;-79
2021/05/03 13:01:16;;;;;;;2.75;1.00;;;;;;;;;;4865086;29;20060;-79
2021/05/03 13:03:56;;;;;;;2.45;1.52;;;;;;;;;;4863065;29;20025;-80
2021/05/03 13:29:19;;;;;;;1.88;1.02;;;;;;;;;;4882776;29;20026;-81
2021/05/03 13:31:46;;;;;;;2.95;1.05;;;;;;;;;;4831495;29;20509;-79
2021/05/03 13:34:14;;;;;;;2.40;1.45;;;;;;;;;;4862644;29;20049;-79
2021/05/03 13:36:41;;;;;;;2.08;1.20;;;;;;;;;;4857525;29;20068;-77
2021/05/03 13:39:08;;;;;;;2.67;1.33;;;;;;;;;;4872563;29;20033;-81
2021/05/03 13:41:35;;;;;;;1.40;1.30;;;;;;;;;;4864479;29;20496;-79
2021/05/03 13:44:01;;;;;;;3.08;1.33;;;;;;;;;;4867627;29;20026;-78
2021/05/03 13:46:27;;;;;;;2.17;1.10;;;;;;;;;;4869313;29;20489;-79
2021/05/03 13:48:56;;;;;;;1.88;1.30;;;;;;;;;;4874119;29;20025;-81
2021/05/03 13:51:23;;;;;;;2.38;1.40;;;;;;;;;;4882107;29;20037;-81
2021/05/03 13:53:49;;;;;;;2.65;1.27;;;;;;;;;;4874047;29;20098;-80
2021/05/03 13:56:16;;;;;;;5.85;1.65;;;;;;;;;;4871275;29;20037;-81
2021/05/03 13:58:42;;;;;;;1.42;1.05;;;;;;;;;;4862643;29;20581;-80
2021/05/03 14:01:09;;;;;;;3.47;1.10;;;;;;;;;;4878193;29;20029;-80
2021/05/03 14:03:35;;;;;;;1.33;1.23;;;;;;;;;;4855446;29;20461;-80
2021/05/03 14:06:01;;;;;;;2.55;1.15;;;;;;;;;;4885357;29;20036;-80
2021/05/03 14:08:29;;;;;;;1.40;1.08;;;;;;;;;;4886435;29;20267;-80
2021/05/03 14:10:55;;;;;;;3.35;1.25;;;;;;;;;;4883187;29;20029;-80
2021/05/03 14:13:21;;;;;;;5.03;1.20;;;;;;;;;;4883069;29;20113;-80
2021/05/03 14:15:49;;;;;;;2.30;1.05;;;;;;;;;;4883057;29;20029;-80
2021/05/03 14:18:15;;;;;;;2.58;1.23;;;;;;;;;;4861759;29;20061;-82
2021/05/03 14:20:41;;;;;;;2.35;1.52;;;;;;;;;;4863743;29;20033;-81
2021/05/03 14:23:07;;;;;;;9.07;1.60;;;;;;;;;;4864862;29;20032;-81
2021/05/03 14:25:35;;;;;;;4.28;1.40;;;;;;;;;;4871463;29;20085;-79
2021/05/03 14:28:05;;;;;;;3.28;1.20;;;;;;;;;;4874119;29;20029;-79
2021/05/03 14:30:46;;;;;;;1.70;1.23;;;;;;;;;;4869670;29;20054;-80
2021/05/03 14:33:18;;;;;;;2.58;1.38;;;;;;;;;;4876525;29;20029;-80
2021/05/03 14:35:44;;;;;;;3.13;1.50;;;;;;;;;;4870541;29;20044;-80
2021/05/03 14:38:10;;;;;;;2.63;1.58;;;;;;;;;;4882533;29;20033;-79
2021/05/03 14:40:37;;;;;;;3.30;1.50;;;;;;;;;;4876520;29;20037;-81
2021/05/03 14:43:08;;;;;;;3.53;1.73;;;;;;;;;;4871206;29;20025;-81
2021/05/03 14:45:38;;;;;;;2.42;1.20;;;;;;;;;;4872042;29;20037;-81
2021/05/03 14:48:13;;;;;;;2.17;1.20;;;;;;;;;;4892363;29;20800;-79
2021/05/03 14:51:09;;;;;;;3.70;1.23;;;;;;;;;;4873175;29;20037;-81
2021/05/03 14:55:54;;;;;;;2.92;1.85;;;;;;;;;;4881186;29;20039;-80
2021/05/03 14:58:20;;;;;;;1.63;1.15;;;;;;;;;;4884144;29;20036;-80
2021/05/03 15:00:46;;;;;;;1.77;1.10;;;;;;;;;;4887403;29;20095;-80
2021/05/03 15:03:12;;;;;;;4.53;1.33;;;;;;;;;;4868455;29;20030;-81
2021/05/03 15:05:40;;;;;;;2.13;1.38;;;;;;;;;;4878115;29;20048;-82
2021/05/03 15:08:07;;;;;;;2.20;1.35;;;;;;;;;;4870515;29;20056;-82
2021/05/03 15:10:33;;;;;;;2.33;1.10;;;;;;;;;;4864769;29;20173;-80
2021/05/03 15:13:19;;;;;;;2.72;1.30;;;;;;;;;;4858198;29;20048;-81
2021/05/03 15:23:47;;;;;;;3.13;1.40;;;;;;;;;;4884540;29;20067;-82
2021/05/03 15:26:19;;;;;;;1.90;1.20;;;;;;;;;;4874655;29;20025;-80
2021/05/03 15:31:29;;;;;;;5.80;1.33;;;;;;;;;;4882235;29;20112;-81
2021/05/03 15:33:55;;;;;;;6.05;1.35;;;;;;;;;;4883918;29;20138;-81
2021/05/03 15:36:21;;;;;;;1.83;1.15;;;;;;;;;;4869160;29;20097;-81
2021/05/03 15:38:47;;;;;;;5.85;1.80;;;;;;;;;;4856539;29;20032;-81
2021/05/03 15:41:18;;;;;;;2.22;1.08;;;;;;;;;;4875758;29;20034;-81
2021/05/03 15:43:45;;;;;;;1.98;1.48;;;;;;;;;;4876436;29;20484;-81
2021/05/03 15:46:13;;;;;;;2.22;1.45;;;;;;;;;;4865556;29;20031;-81
2021/05/03 15:48:39;;;;;;;2.70;2.00;;;;;;;;;;4881467;29;20032;-80
2021/05/03 15:51:07;;;;;;;4.32;1.33;;;;;;;;;;4869337;29;20072;-80
2021/05/03 15:53:34;;;;;;;2.92;1.35;;;;;;;;;;4859727;29;20123;-80
2021/05/03 15:56:03;;;;;;;3.80;1.80;;;;;;;;;;4853604;29;20021;-80
2021/05/03 15:58:30;;;;;;;1.58;1.33;;;;;;;;;;4883620;29;20026;-80
2021/05/03 16:00:56;;;;;;;3.60;1.38;;;;;;;;;;4883761;29;20037;-80
2021/05/03 16:03:24;;;;;;;3.33;1.13;;;;;;;;;;4868978;29;20060;-80
2021/05/03 16:05:50;;;;;;;2.08;1.02;;;;;;;;;;4879156;29;20113;-79
2021/05/03 16:08:16;;;;;;;2.95;1.30;;;;;;;;;;4875979;29;20631;-80
2021/05/03 16:10:43;;;;;;;3.38;1.70;;;;;;;;;;4870825;29;20044;-80
2021/05/03 16:13:09;;;;;;;1.30;0.85;;;;;;;;;;4874108;29;20488;-81
2021/05/03 16:15:36;;;;;;;3.67;1.10;;;;;;;;;;4870362;29;20155;-80
2021/05/03 16:18:02;;;;;;;2.58;1.45;;;;;;;;;;4857643;29;20484;-82
2021/05/03 16:20:31;;;;;;;2.78;2.05;;;;;;;;;;4873672;29;20428;-83
2021/05/03 16:22:58;;;;;;;4.20;3.25;;;;;;;;;;4862283;29;20036;-82
2021/05/03 16:25:24;;;;;;;3.95;1.40;;;;;;;;;;4858929;29;20034;-82
2021/05/03 16:27:50;;;;;;;4.43;1.30;;;;;;;;;;4878368;29;20029;-82
2021/05/03 16:30:18;;;;;;;5.18;1.20;;;;;;;;;;4873379;29;20386;-82
2021/05/03 16:32:44;;;;;;;5.10;1.40;;;;;;;;;;4859475;29;20032;-82
2021/05/03 16:35:11;;;;;;;5.57;1.40;;;;;;;;;;4860035;29;20041;-82
2021/05/03 16:37:37;;;;;;;3.15;1.50;;;;;;;;;;4856176;29;20097;-82
2021/05/03 16:40:04;;;;;;;3.60;1.05;;;;;;;;;;4875038;29;20028;-83
2021/05/03 16:42:31;;;;;;;2.75;1.40;;;;;;;;;;4858066;29;20104;-82
2021/05/03 16:44:59;;;;;;;3.78;1.70;;;;;;;;;;4861503;29;20034;-82
2021/05/03 16:47:25;;;;;;;3.33;1.60;;;;;;;;;;4876786;29;20032;-82
2021/05/03 16:49:52;;;;;;;7.95;1.90;;;;;;;;;;4869574;29;20040;-83
2021/05/03 16:52:18;;;;;;;6.70;1.60;;;;;;;;;;4864890;29;20036;-83
2021/05/03 16:54:44;;;;;;;5.65;1.95;;;;;;;;;;4874374;29;20074;-82
2021/05/03 16:57:10;;;;;;;5.80;1.95;;;;;;;;;;4870984;29;20053;-81
2021/05/03 16:59:36;;;;;;;6.38;2.00;;;;;;;;;;4874226;29;20035;-83
2021/05/03 17:02:02;;;;;;;4.88;1.95;;;;;;;;;;4876083;29;20021;-82
2021/05/03 17:04:28;;;;;;;8.40;1.98;;;;;;;;;;4876447;29;20041;-83
2021/05/03 17:06:55;;;;;;;8.07;3.05;;;;;;;;;;4865528;29;20033;-83
2021/05/03 17:09:21;;;;;;;5.32;1.80;;;;;;;;;;4859296;29;20033;-83
2021/05/03 17:11:47;;;;;;;5.95;2.08;;;;;;;;;;4867222;29;20232;-83
2021/05/03 17:14:14;;;;;;;5.07;1.92;;;;;;;;;;4861011;29;20038;-82
2021/05/03 17:16:45;;;;;;;6.47;2.25;;;;;;;;;;4853573;29;20069;-82
2021/05/03 17:19:11;;;;;;;6.15;1.90;;;;;;;;;;4858894;29;20045;-82
2021/05/03 17:21:38;;;;;;;7.22;2.58;;;;;;;;;;4863436;29;20029;-82
2021/05/03 17:24:05;;;;;;;6.63;2.08;;;;;;;;;;4874394;29;20531;-82
2021/05/03 17:26:32;;;;;;;4.45;1.63;;;;;;;;;;4855868;29;20053;-82
2021/05/03 17:29:03;;;;;;;6.55;1.95;;;;;;;;;;4864648;29;20036;-80
2021/05/03 17:31:30;;;;;;;11.25;2.40;;;;;;;;;;4874056;29;20453;-80
2021/05/03 17:33:57;;;;;;;8.27;2.47;;;;;;;;;;4871235;29;20030;-80
2021/05/03 17:36:23;;;;;;;6.53;2.33;;;;;;;;;;4870809;29;20038;-80
2021/05/03 17:38:49;;;;;;;10.15;2.60;;;;;;;;;;4877571;29;20472;-80
2021/05/03 17:41:15;;;;;;;9.43;2.50;;;;;;;;;;4868171;29;20025;-80
2021/05/03 17:43:41;;;;;;;7.32;2.47;;;;;;;;;;4866129;29;20528;-80
2021/05/03 17:46:07;;;;;;;6.90;2.22;;;;;;;;;;4857373;29;20029;-80
2021/05/03 17:48:33;;;;;;;8.35;2.30;;;;;;;;;;4874112;29;20069;-80
2021/05/03 17:51:00;;;;;;;5.90;2.30;;;;;;;;;;4880745;29;20520;-81
2021/05/03 17:53:26;;;;;;;6.18;2.13;;;;;;;;;;4858335;29;20029;-81
2021/05/03 17:55:53;;;;;;;5.90;2.13;;;;;;;;;;4881157;29;20021;-80
2021/05/03 17:58:19;;;;;;;7.88;2.10;;;;;;;;;;4877009;29;20056;-79
2021/05/03 18:00:45;;;;;;;5.68;2.20;;;;;;;;;;4846267;29;20029;-81
2021/05/03 18:03:11;;;;;;;7.15;1.90;;;;;;;;;;4859815;29;20029;-80
2021/05/03 18:05:37;;;;;;;10.00;2.30;;;;;;;;;;4881640;29;20029;-80
2021/05/03 18:08:04;;;;;;;8.02;2.33;;;;;;;;;;4874336;29;20037;-80
2021/05/03 18:10:31;;;;;;;6.53;2.22;;;;;;;;;;4881112;29;20030;-80
2021/05/03 18:12:58;;;;;;;8.75;2.03;;;;;;;;;;4853872;29;20080;-80
2021/05/03 18:15:28;;;;;;;5.82;2.60;;;;;;;;;;4870605;29;20042;-80
2021/05/03 18:17:55;;;;;;;8.85;2.58;;;;;;;;;;4883516;29;20424;-80
2021/05/03 18:20:21;;;;;;;6.95;2.53;;;;;;;;;;4879430;29;20044;-80
2021/05/03 18:22:48;;;;;;;10.05;2.20;;;;;;;;;;4871348;29;20108;-80
2021/05/03 18:25:14;;;;;;;5.90;2.03;;;;;;;;;;4873358;29;20493;-80
2021/05/03 18:27:41;;;;;;;10.02;2.20;;;;;;;;;;4849477;29;20030;-80
2021/05/03 18:30:08;;;;;;;13.05;2.83;;;;;;;;;;4878144;29;20033;-80
2021/05/03 18:32:38;;;;;;;10.23;2.60;;;;;;;;;;4868573;29;20497;-80
2021/05/03 18:35:04;;;;;;;9.82;2.65;;;;;;;;;;4885046;29;20039;-80
2021/05/03 18:37:32;;;;;;;6.25;2.35;;;;;;;;;;4877801;29;20028;-80
2021/05/03 18:39:58;;;;;;;9.80;2.65;;;;;;;;;;4884631;29;20028;-80
2021/05/03 18:42:24;;;;;;;8.52;3.35;;;;;;;;;;4867594;29;20033;-80
2021/05/03 18:44:50;;;;;;;8.77;3.40;;;;;;;;;;4876424;29;20033;-80
2021/05/03 18:47:16;;;;;;;7.32;2.92;;;;;;;;;;4879656;29;20394;-80
2021/05/03 18:49:49;;;;;;;11.75;4.18;;;;;;;;;;4882004;29;20033;-80
2021/05/03 18:52:15;;;;;;;7.00;2.92;;;;;;;;;;4860485;29;20449;-80
2021/05/03 18:54:41;;;;;;;8.82;3.00;;;;;;;;;;4850856;29;20041;-80
2021/05/03 18:57:08;;;;;;;8.43;3.65;;;;;;;;;;4867517;29;20116;-80
2021/05/03 18:59:34;;;;;;;10.40;3.97;;;;;;;;;;4877198;29;20438;-80
2021/05/03 19:02:00;;;;;;;11.10;3.55;;;;;;;;;;4881947;29;20392;-80
2021/05/03 19:04:26;;;;;;;7.07;2.78;;;;;;;;;;4866260;29;20036;-80
2021/05/03 19:06:52;;;;;;;8.10;2.80;;;;;;;;;;4856114;29;20553;-80
2021/05/03 19:09:18;;;;;;;8.93;2.70;;;;;;;;;;4879137;29;20028;-80
2021/05/03 19:11:44;;;;;;;12.70;3.08;;;;;;;;;;4882384;29;20115;-80
2021/05/03 19:14:11;;;;;;;11.02;3.45;;;;;;;;;;4865850;29;20026;-80
2021/05/03 19:16:37;;;;;;;13.00;4.05;;;;;;;;;;4873273;29;20084;-80
2021/05/03 19:19:05;;;;;;;7.47;2.60;;;;;;;;;;4869503;29;20072;-80
2021/05/03 19:21:32;;;;;;;8.38;2.75;;;;;;;;;;4854720;29;20503;-80
2021/05/03 19:23:58;;;;;;;7.45;2.63;;;;;;;;;;4855996;29;20021;-80
2021/05/03 19:26:24;;;;;;;12.65;2.80;;;;;;;;;;4880802;29;20037;-80
2021/05/03 19:28:50;;;;;;;7.30;3.17;;;;;;;;;;4882977;29;20032;-80
2021/05/03 19:31:35;;;;;;;8.95;2.72;;;;;;;;;;4876306;29;20025;-80
2021/05/03 19:34:01;;;;;;;8.30;2.40;;;;;;;;;;4863707;29;20033;-80
2021/05/03 19:36:27;;;;;;;10.35;2.40;;;;;;;;;;4855410;29;20033;-80
2021/05/03 19:38:53;;;;;;;10.10;2.78;;;;;;;;;;4883793;29;20060;-80
2021/05/03 19:41:19;;;;;;;8.57;2.70;;;;;;;;;;4883927;29;20023;-80
2021/05/03 19:43:45;;;;;;;10.50;2.97;;;;;;;;;;4883425;29;20460;-80
2021/05/03 19:46:12;;;;;;;12.48;3.10;;;;;;;;;;4854399;29;20036;-80
2021/05/03 19:48:41;;;;;;;7.20;2.95;;;;;;;;;;4873027;29;20073;-80
2021/05/03 19:56:31;;;;;;;10.27;3.20;;;;;;;;;;4876919;29;20025;-82
2021/05/03 20:04:27;;;;;;;14.93;3.90;;;;;;;;;;4867270;29;20049;-82
2021/05/03 20:06:54;;;;;;;12.98;4.57;;;;;;;;;;4871803;29;20060;-82
2021/05/03 20:09:21;;;;;;;13.80;3.85;;;;;;;;;;4878919;29;20036;-82
2021/05/03 20:11:47;;;;;;;11.95;4.00;;;;;;;;;;4865691;29;20037;-82
2021/05/03 20:14:14;;;;;;;7.75;3.22;;;;;;;;;;4878227;29;20036;-82
2021/05/03 20:16:40;;;;;;;9.23;3.80;;;;;;;;;;4860515;29;20026;-82
2021/05/03 20:19:06;;;;;;;15.13;7.10;;;;;;;;;;4866450;29;20041;-82
2021/05/03 20:21:32;;;;;;;14.65;6.00;;;;;;;;;;4866801;29;20457;-82
2021/05/03 20:23:58;;;;;;;9.27;4.20;;;;;;;;;;4863905;29;20034;-82
2021/05/03 20:26:24;;;;;;;11.73;4.85;;;;;;;;;;4857468;29;20497;-82
2021/05/03 20:28:51;;;;;;;8.95;3.83;;;;;;;;;;4879703;29;20029;-82
2021/05/03 20:31:17;;;;;;;9.90;4.13;;;;;;;;;;4854220;29;20028;-82
2021/05/03 20:41:52;;;;;;;9.10;3.88;;;;;;;;;;4857788;29;20058;-82
2021/05/03 20:44:18;;;;;;;11.20;4.22;;;;;;;;;;4847880;29;20030;-82
2021/05/03 20:46:44;;;;;;;15.60;5.50;;;;;;;;;;4854494;29;20489;-82
2021/05/03 20:49:10;;;;;;;15.05;5.38;;;;;;;;;;4863921;29;20378;-82
2021/05/03 20:51:37;;;;;;;15.57;4.22;;;;;;;;;;4864288;29;20029;-82
2021/05/03 20:54:03;;;;;;;10.73;4.43;;;;;;;;;;4873671;29;20035;-82
2021/05/03 20:56:29;;;;;;;9.73;4.15;;;;;;;;;;4867791;29;20061;-82
2021/05/03 20:58:57;;;;;;;10.32;4.50;;;;;;;;;;4867806;29;20037;-82
2021/05/03 21:01:23;;;;;;;15.45;6.00;;;;;;;;;;4876816;29;20028;-82
2021/05/03 21:03:49;;;;;;;18.92;7.57;;;;;;;;;;4881798;29;20029;-82
2021/05/03 21:06:15;;;;;;;23.42;9.98;;;;;;;;;;4865141;29;20145;-82
2021/05/03 21:08:41;;;;;;;17.52;8.38;;;;;;;;;;4865119;29;20036;-82
2021/05/03 21:11:08;;;;;;;36.20;8.35;;;;;;;;;;4883595;29;20058;-82
2021/05/03 21:13:34;;;;;;;15.05;10.00;;;;;;;;;;4866088;29;20029;-82
2021/05/03 21:16:01;;;;;;;9.88;6.28;;;;;;;;;;4875850;29;20021;-82
2021/05/03 21:18:27;;;;;;;9.40;5.20;;;;;;;;;;4874636;29;20104;-82
2021/05/03 21:20:53;;;;;;;13.80;5.53;;;;;;;;;;4874477;29;20036;-82
2021/05/03 21:23:19;;;;;;;11.88;4.55;;;;;;;;;;4852606;29;20467;-82
2021/05/03 21:25:45;;;;;;;11.07;5.50;;;;;;;;;;4868883;29;20028;-82
2021/05/03 21:28:11;;;;;;;8.93;4.47;;;;;;;;;;4878240;29;20030;-82
2021/05/03 21:30:38;;;;;;;12.73;4.93;;;;;;;;;;4855145;29;20128;-82
2021/05/03 21:33:05;;;;;;;11.95;4.97;;;;;;;;;;4870543;29;20484;-82
2021/05/03 21:35:31;;;;;;;12.13;4.50;;;;;;;;;;4870680;29;20032;-82
2021/05/03 21:37:57;;;;;;;8.55;3.92;;;;;;;;;;4872945;29;20040;-82
2021/05/03 21:40:24;;;;;;;7.38;3.33;;;;;;;;;;4851559;29;20630;-82
2021/05/03 21:42:50;;;;;;;15.15;3.97;;;;;;;;;;4872237;29;20496;-82
2021/05/03 21:45:17;;;;;;;6.53;3.10;;;;;;;;;;4874766;29;20080;-82
2021/05/03 21:47:43;;;;;;;6.47;2.22;;;;;;;;;;4874073;29;20085;-82
2021/05/03 21:50:09;;;;;;;9.73;2.95;;;;;;;;;;4876037;29;20025;-82
2021/05/03 21:52:35;;;;;;;7.60;3.20;;;;;;;;;;4867590;29;20032;-82
2021/05/03 21:55:01;;;;;;;6.35;3.08;;;;;;;;;;4871303;29;20029;-82
2021/05/03 21:57:27;;;;;;;7.35;3.25;;;;;;;;;;4887973;29;20043;-82
2021/05/03 21:59:53;;;;;;;6.55;2.85;;;;;;;;;;4877487;29;20025;-82
2021/05/03 22:02:20;;;;;;;8.02;3.10;;;;;;;;;;4869159;29;20026;-82
2021/05/03 22:04:47;;;;;;;6.28;2.95;;;;;;;;;;4868587;29;20074;-82
2021/05/03 22:07:13;;;;;;;6.38;3.33;;;;;;;;;;4877373;29;20504;-82
2021/05/03 22:09:39;;;;;;;4.15;2.50;;;;;;;;;;4884594;29;20029;-82
2021/05/03 22:12:08;;;;;;;6.15;3.05;;;;;;;;;;4863949;29;20029;-82
2021/05/03 22:14:35;;;;;;;6.47;3.13;;;;;;;;;;4856193;29;20573;-82
2021/05/03 22:17:12;;;;;;;5.35;3.10;;;;;;;;;;4876710;29;20025;-82
2021/05/03 22:19:50;;;;;;;4.97;2.70;;;;;;;;;;4884590;29;20052;-82
2021/05/03 22:23:41;;;;;;;5.65;2.45;;;;;;;;;;4880584;29;20441;-82
2021/05/03 22:25:13;;;;;;;6.05;3.15;;;;;;;;;;4877196;29;20485;-82
2021/05/03 22:30:12;;;;;;;7.53;2.70;;;;;;;;;;4883564;29;20044;-82
2021/05/03 22:32:38;;;;;;;4.45;2.85;;;;;;;;;;4884172;29;20107;-82
2021/05/03 22:35:06;;;;;;;6.93;3.58;;;;;;;;;;4860548;29;20120;-81
2021/05/03 22:38:18;;;;;;;8.38;2.97;;;;;;;;;;4877002;29;20033;-82
2021/05/03 22:43:27;;;;;;;6.38;2.70;;;;;;;;;;4871832;29;20033;-82
2021/05/03 23:10:51;;;;;;;7.07;2.88;;;;;;;;;;4879896;29;20457;-82
2021/05/03 23:16:25;;;;;;;8.05;3.25;;;;;;;;;;4865255;29;20068;-81
2021/05/03 23:18:51;;;;;;;8.63;3.30;;;;;;;;;;4865876;29;20040;-81
2021/05/03 23:21:17;;;;;;;4.30;2.58;;;;;;;;;;4862453;29;20773;-81
2021/05/03 23:23:44;;;;;;;6.65;2.90;;;;;;;;;;4856987;29;20029;-81
2021/05/03 23:26:10;;;;;;;14.57;2.95;;;;;;;;;;4883956;29;20036;-82
2021/05/03 23:28:36;;;;;;;9.38;2.83;;;;;;;;;;4859424;29;20504;-82
2021/05/03 23:31:02;;;;;;;10.63;3.55;;;;;;;;;;4880405;29;20530;-81
2021/05/03 23:33:28;;;;;;;10.52;3.30;;;;;;;;;;4880460;29;20033;-81
2021/05/03 23:35:54;;;;;;;14.98;3.45;;;;;;;;;;4865007;29;20033;-81
2021/05/03 23:38:20;;;;;;;7.55;3.03;;;;;;;;;;4856928;29;20026;-81
2021/05/03 23:40:46;;;;;;;9.45;3.38;;;;;;;;;;4867290;29;20029;-81
2021/05/03 23:43:12;;;;;;;7.57;2.97;;;;;;;;;;4867515;29;20031;-81
2021/05/03 23:45:38;;;;;;;14.13;3.83;;;;;;;;;;4883859;29;20089;-81
2021/05/03 23:48:05;;;;;;;11.07;3.75;;;;;;;;;;4880300;29;20120;-81
2021/05/03 23:50:31;;;;;;;10.05;3.50;;;;;;;;;;4872719;29;20029;-81
2021/05/03 23:52:57;;;;;;;8.60;3.35;;;;;;;;;;4859191;29;20120;-81
2021/05/03 23:55:24;;;;;;;7.28;2.85;;;;;;;;;;4876374;29;20041;-81
2021/05/03 23:57:50;;;;;;;8.65;3.08;;;;;;;;;;4873744;29;20170;-81
